Time;durP1;ratioP1;P1;durP2;ratioP2;P2;SDS_P1;SDS_P2;PMS_P1;PMS_P2;Temp;Humidity;BMP_temperature;BMP_pressure;BME280_temperature;BME280_humidity;BME280_pressure;Samples;Min_cycle;Max_cycle;Signal;HPM_P1;HPM_P2
2021/07/26 00:00:42;;;;;;;0.65;0.65;;;24.30;81.00;;;;;;4174908;28;20048;-47
2021/07/26 00:03:03;;;;;;;0.10;0.10;;;24.30;81.00;;;;;;4174616;28;20195;-49
2021/07/26 00:05:25;;;;;;;0.08;0.08;;;24.30;81.00;;;;;;4174718;28;20465;-49
2021/07/26 00:07:49;;;;;;;0.10;0.10;;;24.30;81.00;;;;;;4176309;28;20056;-48
2021/07/26 00:10:12;;;;;;;0.10;0.10;;;24.30;81.00;;;;;;4191238;28;20052;-49
2021/07/26 00:12:34;;;;;;;0.00;0.00;;;24.30;81.10;;;;;;4206549;27;20074;-48
2021/07/26 00:14:56;;;;;;;1.60;0.38;;;24.30;81.10;;;;;;4191212;28;20106;-47
2021/07/26 00:17:18;;;;;;;0.10;0.10;;;24.30;81.10;;;;;;4206568;28;20059;-48
2021/07/26 00:19:40;;;;;;;1.02;0.40;;;24.30;81.10;;;;;;4206264;28;20052;-50
2021/07/26 00:22:04;;;;;;;0.00;0.00;;;24.20;81.10;;;;;;4191141;28;20048;-48
2021/07/26 00:24:27;;;;;;;0.13;0.13;;;24.30;81.20;;;;;;4207759;28;20052;-51
2021/07/26 00:26:49;;;;;;;0.10;0.10;;;24.20;81.10;;;;;;4191070;28;20048;-51
2021/07/26 00:29:11;;;;;;;0.13;0.13;;;24.20;81.20;;;;;;4191026;28;20414;-50
2021/07/26 00:31:33;;;;;;;0.38;0.38;;;24.20;81.20;;;;;;4191033;28;20040;-53
2021/07/26 00:34:18;;;;;;;0.20;0.20;;;24.20;81.20;;;;;;4192097;28;20487;-52
2021/07/26 00:36:42;;;;;;;0.00;0.00;;;24.20;81.30;;;;;;4213039;27;20050;-49
2021/07/26 00:39:05;;;;;;;0.20;0.20;;;24.20;81.30;;;;;;4213068;27;20052;-49
2021/07/26 00:41:28;;;;;;;3.72;0.73;;;24.20;81.30;;;;;;4213328;27;20101;-50
2021/07/26 00:43:51;;;;;;;0.20;0.20;;;24.20;81.90;;;;;;4212887;27;20277;-49
2021/07/26 00:46:13;;;;;;;0.28;0.28;;;24.20;81.50;;;;;;4213338;28;20409;-49
2021/07/26 00:48:35;;;;;;;0.10;0.10;;;24.20;81.50;;;;;;4213243;27;20047;-47
2021/07/26 00:50:57;;;;;;;0.10;0.10;;;24.20;81.40;;;;;;4213234;28;20048;-49
2021/07/26 00:53:19;;;;;;;0.08;0.08;;;24.20;81.50;;;;;;4213029;27;20521;-49
2021/07/26 00:55:41;;;;;;;0.00;0.00;;;24.20;81.50;;;;;;4213151;27;20044;-50
2021/07/26 00:58:05;;;;;;;0.00;0.00;;;24.20;81.50;;;;;;4212544;28;20047;-48
2021/07/26 01:00:27;;;;;;;0.35;0.35;;;24.20;81.50;;;;;;4212977;27;20078;-48
2021/07/26 01:02:50;;;;;;;0.10;0.10;;;24.20;81.50;;;;;;4213040;28;20048;-47
2021/07/26 01:05:12;;;;;;;0.00;0.00;;;24.20;81.50;;;;;;4213191;28;20501;-51
2021/07/26 01:07:35;;;;;;;0.10;0.10;;;24.10;81.40;;;;;;4213318;27;20043;-53
2021/07/26 01:09:57;;;;;;;0.08;0.08;;;24.20;81.50;;;;;;4212791;27;20463;-50
2021/07/26 01:12:19;;;;;;;1.00;1.00;;;24.20;81.50;;;;;;4212887;27;20054;-50
2021/07/26 01:14:42;;;;;;;0.25;0.25;;;24.20;81.50;;;;;;4213516;28;20532;-50
2021/07/26 01:17:08;;;;;;;0.00;0.00;;;24.20;81.50;;;;;;4212931;28;20059;-52
2021/07/26 01:19:30;;;;;;;0.20;0.20;;;24.20;81.50;;;;;;4204643;28;20095;-49
2021/07/26 01:21:54;;;;;;;0.80;0.80;;;24.10;81.40;;;;;;4212510;28;20059;-51
2021/07/26 01:24:16;;;;;;;2.20;0.77;;;24.10;81.40;;;;;;4213265;27;20135;-53
2021/07/26 01:26:39;;;;;;;0.17;0.17;;;24.10;81.50;;;;;;4212508;27;20047;-51
2021/07/26 01:29:02;;;;;;;0.10;0.10;;;24.10;81.50;;;;;;4212941;27;20113;-53
2021/07/26 01:31:25;;;;;;;0.00;0.00;;;24.10;81.50;;;;;;4213059;27;20059;-52
2021/07/26 01:33:48;;;;;;;0.30;0.30;;;24.10;81.50;;;;;;4212921;27;20772;-52
2021/07/26 01:36:11;;;;;;;0.65;0.65;;;24.10;81.50;;;;;;4212823;28;20448;-51
2021/07/26 01:38:34;;;;;;;0.20;0.20;;;24.10;81.50;;;;;;4195741;28;20047;-49
2021/07/26 01:41:01;;;;;;;2.17;1.20;;;24.10;81.50;;;;;;4195337;28;20056;-50
2021/07/26 01:43:25;;;;;;;0.00;0.00;;;24.10;81.50;;;;;;4196023;28;20082;-50
2021/07/26 01:45:56;;;;;;;0.73;0.73;;;24.10;82.40;;;;;;4194149;28;20045;-49
2021/07/26 01:48:24;;;;;;;0.00;0.00;;;24.00;81.50;;;;;;4192958;28;20411;-48
2021/07/26 01:50:53;;;;;;;0.35;0.35;;;24.10;81.50;;;;;;4193378;28;20060;-51
2021/07/26 01:53:15;;;;;;;0.00;0.00;;;24.00;81.50;;;;;;4193115;28;20044;-48
2021/07/26 01:55:39;;;;;;;0.35;0.35;;;24.10;81.60;;;;;;4192945;28;20052;-50
2021/07/26 01:58:02;;;;;;;0.00;0.00;;;24.10;81.60;;;;;;4208462;28;20051;-50
2021/07/26 02:00:24;;;;;;;0.00;0.00;;;24.00;81.60;;;;;;4209844;28;20482;-51
2021/07/26 02:02:46;;;;;;;0.13;0.13;;;24.00;81.60;;;;;;4209781;28;20109;-48
2021/07/26 02:05:10;;;;;;;0.10;0.10;;;24.00;81.60;;;;;;4209877;28;20040;-48
2021/07/26 02:07:32;;;;;;;0.10;0.10;;;24.00;81.60;;;;;;4209779;28;20414;-48
2021/07/26 02:09:54;;;;;;;0.20;0.20;;;24.00;81.60;;;;;;4208559;28;20588;-51
2021/07/26 02:12:17;;;;;;;3.65;3.03;;;24.00;81.60;;;;;;4209426;28;20052;-52
2021/07/26 02:14:39;;;;;;;1.60;1.50;;;24.00;81.60;;;;;;4209988;28;20048;-52
2021/07/26 02:17:01;;;;;;;0.13;0.13;;;24.00;81.60;;;;;;4209794;28;20047;-49
2021/07/26 02:19:24;;;;;;;4.30;0.73;;;24.00;81.60;;;;;;4209827;28;20121;-52
2021/07/26 02:21:46;;;;;;;0.45;0.45;;;24.00;81.60;;;;;;4209547;28;20050;-50
2021/07/26 02:24:08;;;;;;;0.35;0.35;;;23.90;81.50;;;;;;4192782;28;20060;-48
2021/07/26 02:26:31;;;;;;;0.13;0.13;;;24.00;81.60;;;;;;4192157;28;20127;-47
2021/07/26 02:28:54;;;;;;;0.55;0.55;;;24.00;81.70;;;;;;4192653;28;20174;-49
2021/07/26 02:31:16;;;;;;;0.50;0.50;;;23.90;81.60;;;;;;4192630;28;20151;-48
2021/07/26 02:33:39;;;;;;;0.32;0.32;;;23.90;81.50;;;;;;4192565;28;20474;-51
2021/07/26 02:36:01;;;;;;;0.03;0.03;;;23.90;81.60;;;;;;4192399;28;20086;-49
2021/07/26 02:38:23;;;;;;;0.25;0.25;;;23.90;81.50;;;;;;4192141;28;20529;-49
2021/07/26 02:40:45;;;;;;;0.00;0.00;;;23.90;81.50;;;;;;4192249;28;20048;-47
2021/07/26 02:43:07;;;;;;;0.10;0.10;;;23.90;81.50;;;;;;4190286;28;20419;-47
2021/07/26 02:45:31;;;;;;;0.38;0.38;;;23.90;81.60;;;;;;4192613;28;20106;-50
2021/07/26 02:47:54;;;;;;;0.00;0.00;;;23.90;81.50;;;;;;4192508;28;20064;-48
2021/07/26 02:50:16;;;;;;;0.10;0.10;;;23.90;81.50;;;;;;4192247;28;20055;-53
2021/07/26 02:52:38;;;;;;;0.30;0.30;;;23.90;81.50;;;;;;4192381;28;20778;-49
2021/07/26 02:55:00;;;;;;;0.43;0.43;;;23.90;81.50;;;;;;4192175;28;20414;-49
2021/07/26 02:57:23;;;;;;;0.13;0.13;;;23.90;81.50;;;;;;4208407;28;20818;-47
2021/07/26 02:59:45;;;;;;;0.43;0.43;;;23.90;81.50;;;;;;4207665;28;20058;-49
2021/07/26 03:02:09;;;;;;;0.20;0.20;;;23.90;81.60;;;;;;4209075;28;20044;-49
2021/07/26 03:04:31;;;;;;;0.08;0.08;;;23.90;81.60;;;;;;4208793;28;20046;-48
2021/07/26 03:06:53;;;;;;;2.85;1.98;;;23.90;81.60;;;;;;4208928;28;20052;-47
2021/07/26 03:09:15;;;;;;;0.32;0.32;;;23.90;81.60;;;;;;4207179;28;20055;-48
2021/07/26 03:11:37;;;;;;;0.75;0.75;;;23.90;81.60;;;;;;4208937;28;20087;-49
2021/07/26 03:13:59;;;;;;;1.25;0.32;;;23.90;82.50;;;;;;4209103;28;20463;-49
2021/07/26 03:16:21;;;;;;;0.20;0.20;;;23.90;81.60;;;;;;4209008;28;20052;-47
2021/07/26 03:18:45;;;;;;;0.57;0.57;;;23.90;81.70;;;;;;4208817;28;20509;-52
2021/07/26 03:21:08;;;;;;;0.57;0.57;;;23.90;81.60;;;;;;4208788;28;20047;-47
2021/07/26 03:23:30;;;;;;;0.57;0.57;;;23.90;81.60;;;;;;4208642;28;20517;-49
2021/07/26 03:25:53;;;;;;;1.02;0.35;;;23.80;81.50;;;;;;4208015;28;20129;-51
2021/07/26 03:28:15;;;;;;;0.32;0.32;;;23.80;81.50;;;;;;4191675;28;20064;-47
2021/07/26 03:30:38;;;;;;;0.25;0.25;;;23.80;81.50;;;;;;4208680;27;20048;-52
2021/07/26 03:33:00;;;;;;;4.03;1.13;;;23.80;81.50;;;;;;4208794;27;20106;-48
2021/07/26 03:35:24;;;;;;;0.10;0.10;;;23.80;81.40;;;;;;4197378;27;20062;-47
2021/07/26 03:37:46;;;;;;;0.20;0.20;;;23.80;81.40;;;;;;4197506;28;20106;-47
2021/07/26 03:40:09;;;;;;;0.20;0.20;;;23.80;81.40;;;;;;4207116;28;20058;-50
2021/07/26 03:42:33;;;;;;;0.47;0.47;;;23.80;81.40;;;;;;4190968;28;20487;-50
2021/07/26 03:44:56;;;;;;;4.05;0.60;;;23.80;81.40;;;;;;4205784;28;20124;-49
2021/07/26 03:47:17;;;;;;;0.13;0.13;;;23.80;81.50;;;;;;4208324;28;20112;-52
2021/07/26 03:49:39;;;;;;;0.03;0.03;;;23.80;81.50;;;;;;4208436;28;20058;-48
2021/07/26 03:52:03;;;;;;;0.10;0.10;;;23.70;81.50;;;;;;4208170;28;20043;-50
2021/07/26 03:54:25;;;;;;;0.70;0.40;;;23.70;82.10;;;;;;4206480;28;20052;-50
2021/07/26 03:56:47;;;;;;;0.10;0.10;;;23.70;81.70;;;;;;4207825;28;20062;-51
2021/07/26 03:59:09;;;;;;;0.20;0.20;;;23.70;81.60;;;;;;4208047;28;20056;-48
2021/07/26 04:01:32;;;;;;;0.68;0.68;;;23.70;81.70;;;;;;4207704;28;20072;-49
2021/07/26 04:03:54;;;;;;;0.98;0.98;;;23.70;81.70;;;;;;4208120;28;20393;-49
2021/07/26 04:06:17;;;;;;;0.47;0.47;;;23.60;81.60;;;;;;4207905;28;20069;-47
2021/07/26 04:08:41;;;;;;;0.28;0.28;;;23.70;81.60;;;;;;4207716;28;20059;-49
2021/07/26 04:11:08;;;;;;;0.15;0.15;;;23.70;81.60;;;;;;4206441;28;20101;-48
2021/07/26 04:13:33;;;;;;;0.47;0.47;;;23.60;81.50;;;;;;4207485;28;20048;-49
2021/07/26 04:15:54;;;;;;;0.57;0.57;;;23.70;81.60;;;;;;4198492;28;20048;-47
2021/07/26 04:18:16;;;;;;;1.45;1.27;;;23.70;81.50;;;;;;4207681;28;20059;-49
2021/07/26 04:20:39;;;;;;;0.60;0.60;;;23.60;81.40;;;;;;4208051;28;20130;-48
2021/07/26 04:23:01;;;;;;;0.00;0.00;;;23.70;81.50;;;;;;4207977;28;20464;-47
2021/07/26 04:25:25;;;;;;;0.22;0.22;;;23.60;81.50;;;;;;4207484;28;20047;-49
2021/07/26 04:27:47;;;;;;;0.00;0.00;;;23.60;82.30;;;;;;4191125;28;20109;-49
2021/07/26 04:30:10;;;;;;;0.00;0.00;;;23.60;81.40;;;;;;4191053;28;20558;-47
2021/07/26 04:32:40;;;;;;;0.10;0.10;;;23.60;81.40;;;;;;4191117;28;20048;-50
2021/07/26 04:35:04;;;;;;;0.17;0.17;;;23.60;81.30;;;;;;4201597;28;20044;-47
2021/07/26 04:37:26;;;;;;;0.45;0.45;;;23.60;81.30;;;;;;4207770;28;20054;-51
2021/07/26 04:39:48;;;;;;;0.03;0.03;;;23.60;81.20;;;;;;4207820;28;20048;-51
2021/07/26 04:42:12;;;;;;;1.52;1.48;;;23.60;82.10;;;;;;4190795;28;20130;-50
2021/07/26 04:44:36;;;;;;;0.30;0.30;;;23.60;81.30;;;;;;4191166;28;20559;-49
2021/07/26 04:46:58;;;;;;;1.98;0.80;;;23.60;81.30;;;;;;4190965;28;20131;-47
2021/07/26 04:49:22;;;;;;;0.52;0.52;;;23.60;81.20;;;;;;4190902;28;20514;-49
2021/07/26 04:51:44;;;;;;;0.85;0.55;;;23.60;81.20;;;;;;4190903;28;20049;-50
2021/07/26 04:54:06;;;;;;;1.65;1.45;;;23.60;81.10;;;;;;4191233;28;20080;-51
2021/07/26 04:56:29;;;;;;;0.10;0.10;;;23.60;81.10;;;;;;4207308;28;20513;-47
2021/07/26 04:58:52;;;;;;;0.22;0.22;;;23.60;81.10;;;;;;4190848;28;20415;-50
2021/07/26 05:01:14;;;;;;;0.10;0.10;;;23.60;81.10;;;;;;4190979;28;20072;-50
2021/07/26 05:03:36;;;;;;;0.00;0.00;;;23.60;81.90;;;;;;4190956;28;20146;-47
2021/07/26 05:05:58;;;;;;;0.28;0.28;;;23.60;81.00;;;;;;4174500;28;20515;-49
2021/07/26 05:08:20;;;;;;;0.93;0.85;;;23.60;81.10;;;;;;4174074;28;20052;-49
2021/07/26 05:10:46;;;;;;;0.00;0.00;;;23.60;81.10;;;;;;4195182;28;20483;-47
2021/07/26 05:13:09;;;;;;;0.10;0.10;;;23.60;81.90;;;;;;4207596;28;20044;-47
2021/07/26 05:15:32;;;;;;;0.43;0.30;;;23.60;80.90;;;;;;4207143;28;20563;-46
2021/07/26 05:17:54;;;;;;;0.43;0.43;;;23.60;80.90;;;;;;4207392;28;20418;-48
2021/07/26 05:20:17;;;;;;;0.00;0.00;;;23.60;81.00;;;;;;4207849;28;20051;-49
2021/07/26 05:22:39;;;;;;;0.45;0.45;;;23.60;81.00;;;;;;4210707;28;20118;-49
2021/07/26 05:25:02;;;;;;;0.32;0.32;;;23.60;81.10;;;;;;4210320;28;20482;-50
2021/07/26 05:27:28;;;;;;;1.55;0.73;;;23.70;81.20;;;;;;4210181;28;20421;-47
2021/07/26 05:29:51;;;;;;;0.10;0.10;;;23.70;81.20;;;;;;4210511;28;20062;-51
2021/07/26 05:32:14;;;;;;;0.85;0.85;;;23.70;81.10;;;;;;4210606;28;20052;-50
2021/07/26 05:34:37;;;;;;;0.73;0.73;;;23.70;81.20;;;;;;4210560;28;20508;-50
2021/07/26 05:36:59;;;;;;;0.00;0.00;;;23.70;81.30;;;;;;4210460;28;20494;-49
2021/07/26 05:39:23;;;;;;;0.20;0.20;;;23.80;81.30;;;;;;4210143;28;20078;-47
2021/07/26 05:41:45;;;;;;;0.10;0.10;;;23.80;82.00;;;;;;4209769;28;20077;-48
2021/07/26 05:44:08;;;;;;;0.32;0.32;;;23.80;81.50;;;;;;4210283;28;20143;-48
2021/07/26 05:46:30;;;;;;;0.20;0.20;;;23.90;81.50;;;;;;4210427;28;20064;-48
2021/07/26 05:48:53;;;;;;;0.00;0.00;;;23.90;81.40;;;;;;4209349;28;20395;-50
2021/07/26 05:51:15;;;;;;;0.90;0.90;;;23.90;81.20;;;;;;4209732;28;20055;-47
2021/07/26 05:53:37;;;;;;;0.10;0.10;;;23.90;81.20;;;;;;4209991;28;20072;-48
2021/07/26 05:55:59;;;;;;;0.20;0.20;;;23.80;81.10;;;;;;4210068;28;20151;-49
2021/07/26 05:58:21;;;;;;;0.22;0.22;;;23.90;81.20;;;;;;4210334;28;20071;-49
2021/07/26 06:00:45;;;;;;;0.28;0.28;;;23.90;81.10;;;;;;4209924;28;20047;-48
2021/07/26 06:03:08;;;;;;;1.02;1.02;;;23.90;81.10;;;;;;4209765;28;20498;-49
2021/07/26 06:05:31;;;;;;;0.28;0.28;;;23.80;81.00;;;;;;4202608;28;20060;-48
2021/07/26 06:07:54;;;;;;;0.73;0.68;;;23.90;81.10;;;;;;4194608;28;20509;-53
2021/07/26 06:10:16;;;;;;;1.00;0.73;;;23.90;81.00;;;;;;4191843;28;20058;-51
2021/07/26 06:12:38;;;;;;;0.20;0.20;;;23.90;81.00;;;;;;4205780;28;20051;-49
2021/07/26 06:15:01;;;;;;;0.00;0.00;;;23.90;81.00;;;;;;4209812;28;20496;-51
2021/07/26 06:17:23;;;;;;;0.73;0.73;;;23.90;80.90;;;;;;4193044;28;20566;-52
2021/07/26 06:19:45;;;;;;;0.00;0.00;;;23.90;80.90;;;;;;4208473;28;20559;-52
2021/07/26 06:22:08;;;;;;;0.25;0.25;;;23.90;80.90;;;;;;4193231;28;20106;-48
2021/07/26 06:24:32;;;;;;;0.80;0.80;;;23.90;80.90;;;;;;4209779;28;20044;-49
2021/07/26 06:26:55;;;;;;;1.88;1.23;;;23.90;80.80;;;;;;4201637;28;20040;-51
2021/07/26 06:29:17;;;;;;;2.10;0.95;;;23.90;80.80;;;;;;4209822;28;20101;-52
2021/07/26 06:31:40;;;;;;;1.05;1.05;;;23.90;80.80;;;;;;4208986;28;20040;-51
2021/07/26 06:34:03;;;;;;;0.93;0.85;;;23.90;80.80;;;;;;4195591;28;20066;-51
2021/07/26 06:36:25;;;;;;;0.98;0.75;;;23.90;80.90;;;;;;4209363;28;20075;-52
2021/07/26 06:38:48;;;;;;;0.03;0.03;;;23.90;80.90;;;;;;4209081;28;20048;-48
2021/07/26 06:41:10;;;;;;;0.50;0.50;;;23.90;80.90;;;;;;4208817;28;20048;-47
2021/07/26 06:43:33;;;;;;;0.40;0.40;;;23.90;80.90;;;;;;4207106;28;20055;-51
2021/07/26 06:45:55;;;;;;;0.47;0.47;;;23.90;80.90;;;;;;4208351;28;20414;-49
2021/07/26 06:48:17;;;;;;;0.13;0.13;;;23.90;80.90;;;;;;4208891;28;20044;-49
2021/07/26 06:50:39;;;;;;;0.55;0.55;;;24.00;81.00;;;;;;4209197;28;20052;-47
2021/07/26 06:53:02;;;;;;;0.05;0.05;;;24.00;80.80;;;;;;4208823;28;20144;-49
2021/07/26 06:55:25;;;;;;;1.58;1.35;;;24.10;80.60;;;;;;4208682;28;20048;-47
2021/07/26 06:57:47;;;;;;;0.47;0.47;;;24.10;80.40;;;;;;4208708;28;20498;-46
2021/07/26 07:00:10;;;;;;;1.20;0.57;;;24.20;80.10;;;;;;4208981;28;20075;-51
2021/07/26 07:02:32;;;;;;;0.13;0.13;;;24.30;79.90;;;;;;4209049;28;20047;-48
2021/07/26 07:04:55;;;;;;;1.85;1.75;;;24.30;79.50;;;;;;4207052;28;20556;-47
2021/07/26 07:07:17;;;;;;;1.52;1.42;;;24.40;79.10;;;;;;4208841;28;20142;-47
2021/07/26 07:09:39;;;;;;;0.40;0.40;;;24.50;79.00;;;;;;4209220;28;20078;-47
2021/07/26 07:12:03;;;;;;;0.15;0.15;;;24.50;79.10;;;;;;4192151;28;20102;-46
2021/07/26 07:14:25;;;;;;;6.22;1.38;;;24.60;79.10;;;;;;4192041;28;20060;-48
2021/07/26 07:16:47;;;;;;;0.15;0.15;;;24.70;79.20;;;;;;4192044;28;20055;-48
2021/07/26 07:19:10;;;;;;;0.20;0.20;;;24.70;79.40;;;;;;4198274;28;20064;-47
2021/07/26 07:21:32;;;;;;;0.90;0.90;;;24.80;79.40;;;;;;4208445;28;20048;-47
2021/07/26 07:23:57;;;;;;;0.68;0.68;;;24.80;79.50;;;;;;4208541;28;20055;-49
2021/07/26 07:26:20;;;;;;;0.95;0.90;;;24.90;79.60;;;;;;4208693;28;20052;-47
2021/07/26 07:28:45;;;;;;;0.10;0.10;;;24.90;79.30;;;;;;4208060;28;20478;-51
2021/07/26 07:31:07;;;;;;;0.13;0.13;;;24.90;79.30;;;;;;4208362;28;20051;-47
2021/07/26 07:33:29;;;;;;;1.80;1.35;;;25.00;79.30;;;;;;4208366;28;20133;-47
2021/07/26 07:35:51;;;;;;;2.80;2.40;;;25.00;78.80;;;;;;4208146;27;20040;-49
2021/07/26 07:38:13;;;;;;;4.78;1.45;;;25.00;78.00;;;;;;4200769;28;20791;-50
2021/07/26 07:40:37;;;;;;;0.15;0.15;;;25.00;77.80;;;;;;4208432;28;20096;-49
2021/07/26 07:42:59;;;;;;;3.35;1.38;;;25.10;78.00;;;;;;4196252;28;20498;-47
2021/07/26 07:45:22;;;;;;;0.55;0.55;;;25.10;77.90;;;;;;4207145;28;20101;-48
2021/07/26 07:47:45;;;;;;;0.05;0.05;;;25.10;77.60;;;;;;4208206;28;20047;-51
2021/07/26 07:50:11;;;;;;;0.40;0.40;;;25.10;77.40;;;;;;4192836;28;20048;-48
2021/07/26 07:52:34;;;;;;;1.10;0.98;;;25.10;77.40;;;;;;4191395;28;20126;-51
2021/07/26 07:54:56;;;;;;;0.45;0.45;;;25.10;77.40;;;;;;4191335;28;20052;-50
2021/07/26 07:57:22;;;;;;;0.45;0.45;;;25.10;77.30;;;;;;4175110;28;20144;-54
2021/07/26 07:59:47;;;;;;;0.55;0.55;;;25.20;77.30;;;;;;4189871;28;20059;-48
2021/07/26 08:02:12;;;;;;;1.55;1.20;;;25.20;77.20;;;;;;4191358;28;20522;-48
2021/07/26 08:04:35;;;;;;;0.63;0.63;;;25.20;77.10;;;;;;4191254;28;20461;-48
2021/07/26 08:07:13;;;;;;;0.52;0.52;;;25.20;76.80;;;;;;4190829;28;20056;-50
2021/07/26 08:09:35;;;;;;;0.20;0.20;;;25.20;76.80;;;;;;4190988;28;20044;-47
2021/07/26 08:11:57;;;;;;;0.10;0.10;;;25.20;76.60;;;;;;4190821;28;20048;-47
2021/07/26 08:14:20;;;;;;;0.38;0.38;;;25.20;76.30;;;;;;4200999;28;20051;-51
2021/07/26 08:16:42;;;;;;;1.25;0.68;;;25.20;76.00;;;;;;4207779;28;20047;-48
2021/07/26 08:19:07;;;;;;;0.22;0.22;;;25.20;75.80;;;;;;4206419;28;20070;-48
2021/07/26 08:21:30;;;;;;;0.50;0.50;;;25.20;75.90;;;;;;4206488;28;20117;-49
2021/07/26 08:23:52;;;;;;;0.20;0.20;;;25.20;75.80;;;;;;4191167;28;20044;-51
2021/07/26 08:26:14;;;;;;;0.35;0.35;;;25.30;75.90;;;;;;4207260;28;20051;-49
2021/07/26 08:28:36;;;;;;;0.15;0.15;;;25.30;75.90;;;;;;4207460;28;20075;-51
2021/07/26 08:31:02;;;;;;;0.05;0.05;;;25.30;75.90;;;;;;4207080;28;20048;-51
2021/07/26 08:33:24;;;;;;;0.28;0.28;;;25.30;75.90;;;;;;4198263;28;20044;-51
2021/07/26 08:35:47;;;;;;;0.32;0.32;;;25.30;76.00;;;;;;4207537;28;20058;-49
2021/07/26 08:38:10;;;;;;;0.00;0.00;;;25.30;75.90;;;;;;4191171;28;20040;-49
2021/07/26 08:40:33;;;;;;;0.10;0.10;;;25.30;76.00;;;;;;4194502;28;20487;-50
2021/07/26 08:42:57;;;;;;;0.43;0.43;;;25.30;75.90;;;;;;4196886;28;20139;-51
2021/07/26 08:45:20;;;;;;;0.17;0.17;;;25.30;75.90;;;;;;4207288;28;20048;-48
2021/07/26 08:47:42;;;;;;;0.10;0.10;;;25.30;75.80;;;;;;4205848;28;20051;-49
2021/07/26 08:50:07;;;;;;;1.08;1.05;;;25.30;75.80;;;;;;4207126;28;20050;-48
2021/07/26 08:52:34;;;;;;;0.15;0.15;;;25.30;75.70;;;;;;4207830;28;20074;-50
2021/07/26 08:54:57;;;;;;;0.00;0.00;;;25.40;75.80;;;;;;4187208;28;20049;-52
2021/07/26 08:57:19;;;;;;;0.00;0.00;;;25.40;75.70;;;;;;4183160;28;20049;-47
2021/07/26 08:59:42;;;;;;;0.08;0.08;;;25.40;75.60;;;;;;4178796;28;20049;-47
2021/07/26 09:02:04;;;;;;;0.47;0.47;;;25.50;75.50;;;;;;4209227;28;20134;-48
2021/07/26 09:04:27;;;;;;;0.22;0.22;;;25.40;75.40;;;;;;4210776;28;20052;-51
2021/07/26 09:06:51;;;;;;;0.20;0.20;;;25.50;75.40;;;;;;4210748;28;20127;-51
2021/07/26 09:09:14;;;;;;;1.27;1.27;;;25.50;75.20;;;;;;4210976;28;20082;-48
2021/07/26 09:11:44;;;;;;;0.20;0.20;;;25.50;75.20;;;;;;4211102;28;20044;-49
2021/07/26 09:14:06;;;;;;;0.47;0.47;;;25.60;75.10;;;;;;4210002;28;20539;-49
2021/07/26 09:16:30;;;;;;;0.22;0.22;;;25.60;75.10;;;;;;4210736;28;20067;-52
2021/07/26 09:19:02;;;;;;;0.60;0.60;;;25.60;75.00;;;;;;4210259;28;20048;-51
2021/07/26 09:21:51;;;;;;;0.30;0.30;;;25.60;74.90;;;;;;4210894;28;20059;-49
2021/07/26 09:24:15;;;;;;;0.50;0.50;;;25.60;74.90;;;;;;4193860;28;20045;-47
2021/07/26 09:26:37;;;;;;;0.00;0.00;;;25.60;74.90;;;;;;4193360;28;20049;-48
2021/07/26 09:29:00;;;;;;;0.52;0.52;;;25.60;74.80;;;;;;4193072;28;20505;-50
2021/07/26 09:31:22;;;;;;;0.15;0.15;;;25.70;75.60;;;;;;4185942;28;20053;-47
2021/07/26 09:33:55;;;;;;;0.55;0.55;;;25.70;74.60;;;;;;4177121;28;20662;-51
2021/07/26 09:36:19;;;;;;;0.05;0.05;;;25.70;74.60;;;;;;4183455;28;20423;-50
2021/07/26 09:38:43;;;;;;;0.40;0.40;;;25.70;74.60;;;;;;4191283;28;20133;-51
2021/07/26 09:41:08;;;;;;;1.42;1.35;;;25.70;74.50;;;;;;4193498;28;20449;-47
2021/07/26 09:43:30;;;;;;;0.98;0.95;;;25.70;74.40;;;;;;4193345;28;20102;-47
2021/07/26 09:45:57;;;;;;;0.30;0.30;;;25.80;74.30;;;;;;4193453;28;20482;-47
2021/07/26 09:48:19;;;;;;;0.10;0.10;;;25.80;75.00;;;;;;4192854;28;20068;-51
2021/07/26 09:50:43;;;;;;;0.10;0.10;;;25.80;74.00;;;;;;4193409;28;20056;-48
2021/07/26 09:53:14;;;;;;;0.30;0.30;;;25.80;73.90;;;;;;4193080;28;20056;-50
2021/07/26 09:55:41;;;;;;;1.45;0.65;;;25.90;73.80;;;;;;4192481;28;20127;-51
2021/07/26 09:58:05;;;;;;;0.00;0.00;;;25.90;73.60;;;;;;4202822;28;20047;-49
2021/07/26 10:00:28;;;;;;;0.20;0.20;;;25.90;73.60;;;;;;4209990;28;21796;-50
2021/07/26 10:02:50;;;;;;;0.10;0.10;;;25.90;73.60;;;;;;4209912;28;20101;-48
2021/07/26 10:05:14;;;;;;;0.75;0.75;;;25.90;73.60;;;;;;4210160;28;20403;-48
2021/07/26 10:07:36;;;;;;;0.22;0.22;;;25.90;73.50;;;;;;4207264;28;20514;-48
2021/07/26 10:09:59;;;;;;;0.10;0.10;;;25.90;74.30;;;;;;4209950;28;20485;-49
2021/07/26 10:12:22;;;;;;;0.00;0.00;;;26.00;74.30;;;;;;4209388;28;20056;-51
2021/07/26 10:14:49;;;;;;;0.00;0.00;;;26.00;73.20;;;;;;4209945;28;20555;-52
2021/07/26 10:17:11;;;;;;;0.10;0.10;;;26.00;73.30;;;;;;4209271;28;20048;-55
2021/07/26 10:19:34;;;;;;;0.00;0.00;;;26.00;73.20;;;;;;4209897;28;20415;-52
2021/07/26 10:21:57;;;;;;;0.10;0.10;;;26.00;73.30;;;;;;4202756;28;20101;-52
2021/07/26 10:24:20;;;;;;;0.13;0.13;;;26.00;73.20;;;;;;4191381;28;20052;-49
2021/07/26 10:26:45;;;;;;;0.00;0.00;;;26.00;73.20;;;;;;4192405;28;20053;-48
2021/07/26 10:29:07;;;;;;;0.10;0.10;;;26.00;73.10;;;;;;4192138;28;20052;-48
2021/07/26 10:31:38;;;;;;;0.38;0.38;;;26.00;73.10;;;;;;4191614;28;20056;-50
2021/07/26 10:34:01;;;;;;;0.55;0.55;;;26.00;73.10;;;;;;4228719;27;20058;-49
2021/07/26 10:36:47;;;;;;;0.17;0.17;;;26.10;73.00;;;;;;4209068;28;20059;-48
2021/07/26 10:39:10;;;;;;;0.10;0.10;;;26.10;72.70;;;;;;4208775;28;20044;-47
2021/07/26 10:42:00;;;;;;;0.00;0.00;;;26.20;72.80;;;;;;4209390;28;20524;-48
2021/07/26 10:44:42;;;;;;;0.00;0.00;;;26.10;72.50;;;;;;4203139;28;20063;-49
2021/07/26 10:47:16;;;;;;;1.27;0.47;;;26.20;72.50;;;;;;4208772;28;20406;-52
2021/07/26 10:50:12;;;;;;;0.00;0.00;;;26.20;72.40;;;;;;4209179;28;20413;-53
2021/07/26 10:52:52;;;;;;;0.40;0.38;;;26.20;72.20;;;;;;4208672;28;20502;-51
2021/07/26 10:55:57;;;;;;;0.00;0.00;;;26.20;72.70;;;;;;4200072;28;20550;-50
2021/07/26 10:59:04;;;;;;;0.00;0.00;;;26.30;72.10;;;;;;4208276;28;20047;-49
2021/07/26 11:01:39;;;;;;;0.10;0.10;;;26.30;71.90;;;;;;4208838;28;20048;-48
2021/07/26 11:04:03;;;;;;;0.15;0.15;;;26.30;71.80;;;;;;4191886;28;20052;-48
2021/07/26 11:06:59;;;;;;;0.00;0.00;;;26.30;71.80;;;;;;4206646;28;20055;-50
2021/07/26 11:09:39;;;;;;;0.10;0.10;;;26.20;71.70;;;;;;4207168;27;20519;-50
2021/07/26 11:12:02;;;;;;;0.10;0.10;;;26.30;71.80;;;;;;4197329;28;20059;-50
2021/07/26 11:14:24;;;;;;;0.00;0.00;;;26.20;71.60;;;;;;4208698;28;20117;-49
2021/07/26 11:17:04;;;;;;;0.00;0.00;;;26.30;71.70;;;;;;4208751;28;20043;-49
2021/07/26 11:19:59;;;;;;;0.30;0.30;;;26.30;71.60;;;;;;4208370;28;20052;-52
2021/07/26 11:22:58;;;;;;;0.00;0.00;;;26.30;71.60;;;;;;4206987;28;20048;-54
2021/07/26 11:25:21;;;;;;;0.00;0.00;;;26.40;71.50;;;;;;4198689;28;20051;-50
2021/07/26 11:27:44;;;;;;;29.02;1.45;;;26.40;71.40;;;;;;4207798;28;20052;-53
2021/07/26 11:30:08;;;;;;;0.30;0.30;;;26.40;71.30;;;;;;4202426;28;20044;-49
2021/07/26 11:32:30;;;;;;;0.00;0.00;;;26.40;71.20;;;;;;4208396;28;20498;-49
2021/07/26 11:34:55;;;;;;;0.30;0.30;;;26.40;71.00;;;;;;4206777;28;20093;-50
2021/07/26 11:37:17;;;;;;;0.00;0.00;;;26.40;70.90;;;;;;4206765;28;20527;-53
2021/07/26 11:39:47;;;;;;;0.08;0.08;;;26.40;70.70;;;;;;4208181;28;20062;-48
2021/07/26 11:42:09;;;;;;;1.08;0.73;;;26.50;70.50;;;;;;4206246;28;20136;-50
2021/07/26 11:44:31;;;;;;;1.30;0.75;;;26.50;69.70;;;;;;4208357;28;20040;-49
2021/07/26 11:46:54;;;;;;;0.00;0.00;;;26.50;71.30;;;;;;4205834;28;20059;-51
2021/07/26 11:49:18;;;;;;;0.08;0.08;;;26.50;70.40;;;;;;4207968;28;20495;-52
2021/07/26 11:51:41;;;;;;;0.10;0.10;;;26.50;70.40;;;;;;4207840;28;20047;-52
2021/07/26 11:54:07;;;;;;;0.15;0.15;;;26.50;71.30;;;;;;4191553;28;20135;-51
2021/07/26 11:56:32;;;;;;;0.20;0.20;;;26.50;70.40;;;;;;4198941;28;20044;-50
2021/07/26 11:58:54;;;;;;;0.30;0.30;;;26.40;70.10;;;;;;4204871;28;20138;-45
2021/07/26 12:01:18;;;;;;;0.22;0.22;;;26.50;70.20;;;;;;4208264;28;20044;-52
2021/07/26 12:03:40;;;;;;;0.10;0.10;;;26.50;70.20;;;;;;4207886;28;20039;-52
2021/07/26 12:06:03;;;;;;;0.30;0.30;;;26.40;69.80;;;;;;4207969;28;20055;-50
2021/07/26 12:08:28;;;;;;;0.00;0.00;;;26.50;69.90;;;;;;4207806;28;20065;-52
2021/07/26 12:10:50;;;;;;;0.05;0.05;;;26.50;70.50;;;;;;4208079;28;20088;-51
2021/07/26 12:13:15;;;;;;;0.00;0.00;;;26.60;69.60;;;;;;4207566;28;20109;-49
2021/07/26 12:15:38;;;;;;;0.10;0.10;;;26.60;69.50;;;;;;4207859;28;20055;-51
2021/07/26 12:18:06;;;;;;;0.52;0.52;;;26.60;69.40;;;;;;4207471;28;20048;-49
2021/07/26 12:20:28;;;;;;;1.13;0.40;;;26.60;69.30;;;;;;4207765;28;20486;-51
2021/07/26 12:22:50;;;;;;;0.20;0.20;;;26.60;69.10;;;;;;4206144;28;20052;-47
2021/07/26 12:25:22;;;;;;;0.00;0.00;;;26.60;68.90;;;;;;4207559;28;20500;-50
2021/07/26 12:27:53;;;;;;;0.20;0.20;;;26.60;68.70;;;;;;4206367;28;20044;-54
2021/07/26 12:30:15;;;;;;;0.10;0.10;;;26.70;68.70;;;;;;4206314;28;20500;-49
2021/07/26 12:32:49;;;;;;;0.13;0.13;;;26.70;68.60;;;;;;4207654;28;20040;-52